Погода Дервентана неделю

Биельина, Босния и Герцеговина

13 - 19 июля
  • 13июля
    Сегодня
    +22°
    +37°
    Ясно и безоблачно
    ВремяПогодаТемператураВлажностьДавлениеВетер, м/сВероятность осадков
    02:00Ясно и безоблачно+25°C60 %746 мм0.9 м/с2 %
    05:00Ясно и безоблачно+22°C70 %746 мм0.8 м/с2 %
    08:00Ясно и безоблачно+26°C70 %747 мм0.9 м/с2 %
    11:00Ясно и безоблачно+33°C54 %748 мм1.2 м/с2 %
    14:00Ясно и безоблачно+36°C37 %747 мм2.1 м/с2 %
    17:00Практически безоблачно+36°C37 %746 мм2.3 м/с2 %
    20:00Ясно и безоблачно+34°C56 %746 мм1.3 м/с1 %
    23:00Ясно и безоблачно+27°C65 %747 мм0.9 м/с2 %
  • 14июля
    Воскресенье
    +22°
    +37°
    Практически безоблачно
    ВремяПогодаТемператураВлажностьДавлениеВетер, м/сВероятность осадков
    02:00Ясно и безоблачно+24°C79 %746 мм0.5 м/с2 %
    05:00Ясно и безоблачно+23°C82 %747 мм0.7 м/с2 %
    08:00Ясно и безоблачно+26°C71 %747 мм1.1 м/с2 %
    11:00Ясно и безоблачно+32°C51 %747 мм1.2 м/с2 %
    14:00Практически безоблачно+36°C39 %747 мм1.8 м/с7 %
    17:00Практически безоблачно+35°C43 %747 мм2.4 м/с13 %
    20:00Ясно и безоблачно+33°C67 %748 мм1.9 м/с2 %
    23:00Ясно и безоблачно+26°C70 %748 мм1.1 м/с2 %
  • 15июля
    Понедельник
    +22°
    +37°
    Ясно и безоблачно
    ВремяПогодаТемператураВлажностьДавлениеВетер, м/сВероятность осадков
    02:00Ясно и безоблачно+24°C85 %748 мм0.5 м/с2 %
    05:00Ясно и безоблачно+23°C88 %749 мм0.8 м/с2 %
    08:00Ясно и безоблачно+26°C73 %750 мм1.0 м/с2 %
    11:00Ясно и безоблачно+32°C56 %750 мм1.2 м/с2 %
    14:00Ясно и безоблачно+36°C44 %749 мм2.0 м/с2 %
    17:00Облачно с прояснениями+37°C42 %748 мм2.3 м/с5 %
    20:00Облачно с прояснениями+34°C62 %748 мм1.5 м/с3 %
    23:00Ясно и безоблачно+28°C64 %748 мм0.9 м/с2 %
  • 16июля
    Вторник
    +24°
    +38°
    Практически безоблачно
    ВремяПогодаТемператураВлажностьДавлениеВетер, м/сВероятность осадков
    02:00Ясно и безоблачно+25°C77 %748 мм0.5 м/с2 %
    05:00Ясно и безоблачно+23°C85 %747 мм0.8 м/с2 %
    08:00Ясно и безоблачно+26°C70 %748 мм1.0 м/с2 %
    11:00Ясно и безоблачно+33°C48 %748 мм1.0 м/с2 %
    14:00Практически безоблачно+37°C30 %748 мм2.0 м/с9 %
    17:00Практически безоблачно+38°C32 %747 мм2.2 м/с5 %
    20:00Ясно и безоблачно+33°C48 %747 мм1.5 м/с2 %
    23:00Ясно и безоблачно+27°C59 %748 мм1.1 м/с2 %
  • 17июля
    Среда
    +23°
    +35°
    Небольшая облачность
    ВремяПогодаТемператураВлажностьДавлениеВетер, м/сВероятность осадков
    02:00Ясно и безоблачно+25°C71 %748 мм0.6 м/с2 %
    05:00Ясно и безоблачно+25°C73 %749 мм1.2 м/с2 %
    08:00Ясно и безоблачно+26°C65 %750 мм1.4 м/с2 %
    11:00Ясно и безоблачно+31°C52 %750 мм1.6 м/с2 %
    14:00Небольшая облачность+35°C45 %750 мм2.0 м/с11 %
    17:00Небольшая облачность, возможен дождь с грозой+35°C57 %751 мм2.0 м/с42 %
    20:00Небольшая облачность+34°C72 %750 мм1.2 м/с8 %
    23:00Ясно и безоблачно+27°C85 %751 мм0.8 м/с3 %
Мы используем cookies
Соглашаюсь